sensor_id;sensor_type;location;lat;lon;timestamp;pressure;altitude;pressure_sealevel;temperature;humidity
62655;BME280;48717;55.556;37.816;2023-12-04T00:02:04;98170.03;;;-6.83;88.25
62655;BME280;48717;55.556;37.816;2023-12-04T00:04:31;98145.38;;;-7.00;88.41
62655;BME280;48717;55.556;37.816;2023-12-04T00:06:59;98183.38;;;-6.90;88.18
62655;BME280;48717;55.556;37.816;2023-12-04T00:09:26;98163.06;;;-7.06;87.45
62655;BME280;48717;55.556;37.816;2023-12-04T00:11:54;98176.25;;;-6.97;87.93
62655;BME280;48717;55.556;37.816;2023-12-04T00:14:21;98178.16;;;-6.93;87.25
62655;BME280;48717;55.556;37.816;2023-12-04T00:16:48;98197.00;;;-6.91;87.81
62655;BME280;48717;55.556;37.816;2023-12-04T00:19:16;98184.78;;;-6.98;87.71
62655;BME280;48717;55.556;37.816;2023-12-04T00:21:44;98183.00;;;-6.99;86.92
62655;BME280;48717;55.556;37.816;2023-12-04T00:24:11;98181.53;;;-7.14;87.42
62655;BME280;48717;55.556;37.816;2023-12-04T00:26:38;98175.28;;;-7.21;87.37
62655;BME280;48717;55.556;37.816;2023-12-04T00:29:06;98195.31;;;-7.12;87.15
62655;BME280;48717;55.556;37.816;2023-12-04T00:31:33;98220.97;;;-7.10;86.66
62655;BME280;48717;55.556;37.816;2023-12-04T00:34:00;98184.81;;;-7.38;87.11
62655;BME280;48717;55.556;37.816;2023-12-04T00:36:27;98214.44;;;-7.23;87.43
62655;BME280;48717;55.556;37.816;2023-12-04T00:38:55;98227.03;;;-7.28;86.73
62655;BME280;48717;55.556;37.816;2023-12-04T00:41:22;98226.19;;;-7.28;86.59
62655;BME280;48717;55.556;37.816;2023-12-04T00:43:49;98238.19;;;-7.27;87.90
62655;BME280;48717;55.556;37.816;2023-12-04T00:46:16;98249.91;;;-7.32;87.11
62655;BME280;48717;55.556;37.816;2023-12-04T00:48:44;98246.25;;;-7.38;86.60
62655;BME280;48717;55.556;37.816;2023-12-04T00:51:13;98234.25;;;-7.39;87.38
62655;BME280;48717;55.556;37.816;2023-12-04T00:53:40;98247.06;;;-7.39;87.03
62655;BME280;48717;55.556;37.816;2023-12-04T00:56:08;98235.72;;;-7.44;87.28
62655;BME280;48717;55.556;37.816;2023-12-04T00:58:35;98236.47;;;-7.47;87.13
62655;BME280;48717;55.556;37.816;2023-12-04T01:01:02;98231.94;;;-7.52;88.21
62655;BME280;48717;55.556;37.816;2023-12-04T01:03:30;98240.84;;;-7.44;87.54
62655;BME280;48717;55.556;37.816;2023-12-04T01:06:00;98249.63;;;-7.39;87.32
62655;BME280;48717;55.556;37.816;2023-12-04T01:08:27;98262.38;;;-7.40;87.67
62655;BME280;48717;55.556;37.816;2023-12-04T01:10:54;98236.94;;;-7.55;88.46
62655;BME280;48717;55.556;37.816;2023-12-04T01:13:21;98269.84;;;-7.45;88.38
62655;BME280;48717;55.556;37.816;2023-12-04T01:15:49;98268.34;;;-7.60;89.54
62655;BME280;48717;55.556;37.816;2023-12-04T01:18:16;98258.91;;;-7.61;89.11
62655;BME280;48717;55.556;37.816;2023-12-04T01:20:44;98267.38;;;-7.62;88.85
62655;BME280;48717;55.556;37.816;2023-12-04T01:23:11;98264.03;;;-7.61;88.99
62655;BME280;48717;55.556;37.816;2023-12-04T01:25:38;98277.75;;;-7.58;90.04
62655;BME280;48717;55.556;37.816;2023-12-04T01:28:06;98263.53;;;-7.71;90.02
62655;BME280;48717;55.556;37.816;2023-12-04T01:30:33;98246.03;;;-7.80;90.00
62655;BME280;48717;55.556;37.816;2023-12-04T01:33:01;98260.50;;;-7.81;89.26
62655;BME280;48717;55.556;37.816;2023-12-04T01:35:28;98269.22;;;-7.77;88.87
62655;BME280;48717;55.556;37.816;2023-12-04T01:37:56;98275.44;;;-7.72;89.65
62655;BME280;48717;55.556;37.816;2023-12-04T01:40:23;98257.75;;;-7.86;89.29
62655;BME280;48717;55.556;37.816;2023-12-04T01:42:51;98285.69;;;-7.72;89.83
62655;BME280;48717;55.556;37.816;2023-12-04T01:45:18;98280.47;;;-7.74;89.22
62655;BME280;48717;55.556;37.816;2023-12-04T01:47:46;98265.72;;;-7.79;88.83
62655;BME280;48717;55.556;37.816;2023-12-04T01:50:14;98266.38;;;-7.83;89.44
62655;BME280;48717;55.556;37.816;2023-12-04T01:52:42;98252.38;;;-7.92;89.53
62655;BME280;48717;55.556;37.816;2023-12-04T01:55:10;98254.03;;;-7.92;90.41
62655;BME280;48717;55.556;37.816;2023-12-04T01:57:37;98257.91;;;-8.01;89.05
62655;BME280;48717;55.556;37.816;2023-12-04T02:00:06;98279.47;;;-7.95;89.14
62655;BME280;48717;55.556;37.816;2023-12-04T02:02:39;98253.25;;;-8.09;90.02
62655;BME280;48717;55.556;37.816;2023-12-04T02:05:07;98283.22;;;-8.07;89.45
62655;BME280;48717;55.556;37.816;2023-12-04T02:07:35;98249.22;;;-8.22;88.44
62655;BME280;48717;55.556;37.816;2023-12-04T02:10:05;98289.63;;;-8.15;88.40
62655;BME280;48717;55.556;37.816;2023-12-04T02:12:33;98302.50;;;-8.14;87.89
62655;BME280;48717;55.556;37.816;2023-12-04T02:15:01;98305.72;;;-8.18;89.72
62655;BME280;48717;55.556;37.816;2023-12-04T02:17:33;98306.13;;;-8.27;88.39
62655;BME280;48717;55.556;37.816;2023-12-04T02:20:01;98317.38;;;-8.23;89.61
62655;BME280;48717;55.556;37.816;2023-12-04T02:22:29;98313.94;;;-8.23;89.23
62655;BME280;48717;55.556;37.816;2023-12-04T02:24:56;98306.28;;;-8.23;89.34
62655;BME280;48717;55.556;37.816;2023-12-04T02:27:31;98288.75;;;-8.34;88.90
62655;BME280;48717;55.556;37.816;2023-12-04T02:30:02;98269.13;;;-8.52;88.29
62655;BME280;48717;55.556;37.816;2023-12-04T02:32:36;98236.06;;;-8.67;88.40
62655;BME280;48717;55.556;37.816;2023-12-04T02:35:06;98319.72;;;-8.28;88.57
62655;BME280;48717;55.556;37.816;2023-12-04T02:37:34;98323.94;;;-8.28;88.89
62655;BME280;48717;55.556;37.816;2023-12-04T02:40:02;98315.97;;;-8.34;88.47
62655;BME280;48717;55.556;37.816;2023-12-04T02:42:30;98315.00;;;-8.36;88.73
62655;BME280;48717;55.556;37.816;2023-12-04T02:44:57;98322.69;;;-8.36;88.03
62655;BME280;48717;55.556;37.816;2023-12-04T02:47:24;98307.84;;;-8.44;89.01
62655;BME280;48717;55.556;37.816;2023-12-04T02:49:52;98333.59;;;-8.41;88.35
62655;BME280;48717;55.556;37.816;2023-12-04T02:52:19;98336.63;;;-8.48;87.85
62655;BME280;48717;55.556;37.816;2023-12-04T02:54:47;98360.91;;;-8.40;87.68
62655;BME280;48717;55.556;37.816;2023-12-04T02:57:14;98343.94;;;-8.56;88.25
62655;BME280;48717;55.556;37.816;2023-12-04T02:59:41;98379.75;;;-8.38;88.33
62655;BME280;48717;55.556;37.816;2023-12-04T03:02:08;98383.81;;;-8.41;88.74
62655;BME280;48717;55.556;37.816;2023-12-04T03:04:35;98388.06;;;-8.42;88.00
62655;BME280;48717;55.556;37.816;2023-12-04T03:07:03;98395.63;;;-8.43;88.43
62655;BME280;48717;55.556;37.816;2023-12-04T03:09:30;98401.09;;;-8.37;88.96
62655;BME280;48717;55.556;37.816;2023-12-04T03:12:16;98384.38;;;-8.47;88.98
62655;BME280;48717;55.556;37.816;2023-12-04T03:14:44;98382.81;;;-8.45;88.72
62655;BME280;48717;55.556;37.816;2023-12-04T03:17:11;98416.34;;;-8.22;89.48
62655;BME280;48717;55.556;37.816;2023-12-04T03:19:38;98415.59;;;-8.19;88.42
62655;BME280;48717;55.556;37.816;2023-12-04T03:22:05;98417.75;;;-8.10;88.52
62655;BME280;48717;55.556;37.816;2023-12-04T03:24:33;98430.69;;;-8.07;88.90
62655;BME280;48717;55.556;37.816;2023-12-04T03:27:00;98424.56;;;-8.11;88.72
62655;BME280;48717;55.556;37.816;2023-12-04T03:29:27;98440.38;;;-8.02;88.65
62655;BME280;48717;55.556;37.816;2023-12-04T03:31:54;98422.06;;;-8.09;89.72
62655;BME280;48717;55.556;37.816;2023-12-04T03:34:21;98442.84;;;-8.03;88.73
62655;BME280;48717;55.556;37.816;2023-12-04T03:36:49;98451.16;;;-8.07;89.47
62655;BME280;48717;55.556;37.816;2023-12-04T03:39:16;98449.53;;;-8.05;89.01
62655;BME280;48717;55.556;37.816;2023-12-04T03:41:43;98456.56;;;-8.01;89.00
62655;BME280;48717;55.556;37.816;2023-12-04T03:44:10;98451.72;;;-8.13;89.31
62655;BME280;48717;55.556;37.816;2023-12-04T03:46:38;98476.75;;;-8.07;88.33
62655;BME280;48717;55.556;37.816;2023-12-04T03:49:05;98477.03;;;-8.01;88.43
62655;BME280;48717;55.556;37.816;2023-12-04T03:51:33;98492.25;;;-8.04;89.73
62655;BME280;48717;55.556;37.816;2023-12-04T03:54:00;98474.81;;;-8.12;89.03
62655;BME280;48717;55.556;37.816;2023-12-04T03:56:27;98475.53;;;-8.14;89.63
62655;BME280;48717;55.556;37.816;2023-12-04T03:58:54;98504.41;;;-8.00;89.79
62655;BME280;48717;55.556;37.816;2023-12-04T04:01:21;98502.50;;;-8.04;89.51
62655;BME280;48717;55.556;37.816;2023-12-04T04:03:48;98511.09;;;-8.02;88.54
62655;BME280;48717;55.556;37.816;2023-12-04T04:06:16;98509.81;;;-8.10;89.42
62655;BME280;48717;55.556;37.816;2023-12-04T04:08:43;98492.16;;;-8.22;89.10
62655;BME280;48717;55.556;37.816;2023-12-04T04:11:11;98515.91;;;-8.25;89.36
62655;BME280;48717;55.556;37.816;2023-12-04T04:13:38;98527.44;;;-8.17;88.86
62655;BME280;48717;55.556;37.816;2023-12-04T04:16:06;98540.13;;;-8.18;89.15
62655;BME280;48717;55.556;37.816;2023-12-04T04:18:34;98509.19;;;-8.40;88.90
62655;BME280;48717;55.556;37.816;2023-12-04T04:21:02;98542.44;;;-8.23;89.04
62655;BME280;48717;55.556;37.816;2023-12-04T04:23:29;98540.38;;;-8.30;89.17
62655;BME280;48717;55.556;37.816;2023-12-04T04:25:57;98549.69;;;-8.31;88.31
62655;BME280;48717;55.556;37.816;2023-12-04T04:28:24;98547.53;;;-8.23;88.13
62655;BME280;48717;55.556;37.816;2023-12-04T04:30:51;98544.03;;;-8.25;88.46
62655;BME280;48717;55.556;37.816;2023-12-04T04:33:19;98541.63;;;-8.39;88.60
62655;BME280;48717;55.556;37.816;2023-12-04T04:35:46;98554.28;;;-8.25;88.45
62655;BME280;48717;55.556;37.816;2023-12-04T04:38:13;98563.25;;;-8.17;88.64
62655;BME280;48717;55.556;37.816;2023-12-04T04:40:41;98534.28;;;-8.32;88.48
62655;BME280;48717;55.556;37.816;2023-12-04T04:43:10;98560.84;;;-8.14;87.26
62655;BME280;48717;55.556;37.816;2023-12-04T04:45:37;98572.13;;;-8.10;87.85
62655;BME280;48717;55.556;37.816;2023-12-04T04:48:05;98568.66;;;-8.10;86.79
62655;BME280;48717;55.556;37.816;2023-12-04T04:50:32;98567.94;;;-8.08;87.19
62655;BME280;48717;55.556;37.816;2023-12-04T04:53:00;98581.00;;;-8.03;87.36
62655;BME280;48717;55.556;37.816;2023-12-04T04:55:27;98570.59;;;-8.06;88.19
62655;BME280;48717;55.556;37.816;2023-12-04T04:58:15;98572.28;;;-8.07;86.66
62655;BME280;48717;55.556;37.816;2023-12-04T05:00:46;98575.16;;;-8.01;87.57
62655;BME280;48717;55.556;37.816;2023-12-04T05:03:14;98559.25;;;-8.12;87.23
62655;BME280;48717;55.556;37.816;2023-12-04T05:05:41;98586.41;;;-7.97;86.75
62655;BME280;48717;55.556;37.816;2023-12-04T05:08:08;98588.22;;;-7.96;87.96
62655;BME280;48717;55.556;37.816;2023-12-04T05:10:38;98582.84;;;-8.01;87.14
62655;BME280;48717;55.556;37.816;2023-12-04T05:13:05;98588.75;;;-8.02;87.32
62655;BME280;48717;55.556;37.816;2023-12-04T05:15:32;98601.00;;;-7.96;87.77
62655;BME280;48717;55.556;37.816;2023-12-04T05:18:00;98588.25;;;-7.94;86.69
62655;BME280;48717;55.556;37.816;2023-12-04T05:20:28;98595.25;;;-7.92;86.58
62655;BME280;48717;55.556;37.816;2023-12-04T05:22:57;98600.38;;;-7.92;86.60
62655;BME280;48717;55.556;37.816;2023-12-04T05:25:24;98602.25;;;-7.88;86.63
62655;BME280;48717;55.556;37.816;2023-12-04T05:27:57;98608.25;;;-7.87;87.12
62655;BME280;48717;55.556;37.816;2023-12-04T05:30:24;98614.28;;;-7.87;87.16
62655;BME280;48717;55.556;37.816;2023-12-04T05:32:52;98619.53;;;-7.83;87.41
62655;BME280;48717;55.556;37.816;2023-12-04T05:35:19;98611.72;;;-7.87;86.62
62655;BME280;48717;55.556;37.816;2023-12-04T05:37:46;98602.50;;;-8.00;86.66
62655;BME280;48717;55.556;37.816;2023-12-04T05:40:13;98626.19;;;-7.87;86.49
62655;BME280;48717;55.556;37.816;2023-12-04T05:42:41;98626.50;;;-7.81;86.63
62655;BME280;48717;55.556;37.816;2023-12-04T05:45:09;98629.63;;;-7.87;85.93
62655;BME280;48717;55.556;37.816;2023-12-04T05:47:36;98650.59;;;-7.77;85.42
62655;BME280;48717;55.556;37.816;2023-12-04T05:50:03;98655.63;;;-7.79;85.80
62655;BME280;48717;55.556;37.816;2023-12-04T05:52:31;98647.69;;;-7.83;85.54
62655;BME280;48717;55.556;37.816;2023-12-04T05:54:58;98670.53;;;-7.71;86.03
62655;BME280;48717;55.556;37.816;2023-12-04T05:57:25;98669.31;;;-7.78;85.06
62655;BME280;48717;55.556;37.816;2023-12-04T05:59:53;98663.84;;;-7.84;86.21
62655;BME280;48717;55.556;37.816;2023-12-04T06:02:20;98684.09;;;-7.73;85.81
62655;BME280;48717;55.556;37.816;2023-12-04T06:04:48;98688.34;;;-7.73;86.18
62655;BME280;48717;55.556;37.816;2023-12-04T06:07:15;98667.22;;;-7.86;85.64
62655;BME280;48717;55.556;37.816;2023-12-04T06:09:42;98660.16;;;-7.90;85.17
62655;BME280;48717;55.556;37.816;2023-12-04T06:12:09;98702.81;;;-7.74;84.59
62655;BME280;48717;55.556;37.816;2023-12-04T06:14:37;98702.09;;;-7.71;84.71
62655;BME280;48717;55.556;37.816;2023-12-04T06:17:04;98685.44;;;-7.79;85.47
62655;BME280;48717;55.556;37.816;2023-12-04T06:19:33;98710.91;;;-7.66;84.38
62655;BME280;48717;55.556;37.816;2023-12-04T06:22:00;98695.22;;;-7.72;84.56
62655;BME280;48717;55.556;37.816;2023-12-04T06:24:28;98719.56;;;-7.64;84.25
62655;BME280;48717;55.556;37.816;2023-12-04T06:26:56;98706.41;;;-7.70;84.12
62655;BME280;48717;55.556;37.816;2023-12-04T06:29:24;98716.66;;;-7.70;84.00
62655;BME280;48717;55.556;37.816;2023-12-04T06:31:52;98729.81;;;-7.64;83.86
62655;BME280;48717;55.556;37.816;2023-12-04T06:34:20;98741.63;;;-7.66;83.67
62655;BME280;48717;55.556;37.816;2023-12-04T06:36:47;98734.91;;;-7.64;84.34
62655;BME280;48717;55.556;37.816;2023-12-04T06:39:16;98728.03;;;-7.65;83.41
62655;BME280;48717;55.556;37.816;2023-12-04T06:41:44;98721.78;;;-7.70;83.87
62655;BME280;48717;55.556;37.816;2023-12-04T06:44:13;98743.72;;;-7.58;84.26
62655;BME280;48717;55.556;37.816;2023-12-04T06:46:44;98727.88;;;-7.68;83.52
62655;BME280;48717;55.556;37.816;2023-12-04T06:49:13;98718.44;;;-7.69;83.49
62655;BME280;48717;55.556;37.816;2023-12-04T06:51:42;98750.78;;;-7.54;83.05
62655;BME280;48717;55.556;37.816;2023-12-04T06:54:09;98741.66;;;-7.49;83.90
62655;BME280;48717;55.556;37.816;2023-12-04T06:56:39;98746.69;;;-7.51;83.42
62655;BME280;48717;55.556;37.816;2023-12-04T06:59:06;98754.06;;;-7.57;83.33
62655;BME280;48717;55.556;37.816;2023-12-04T07:01:33;98759.09;;;-7.58;83.39
62655;BME280;48717;55.556;37.816;2023-12-04T07:04:00;98735.47;;;-7.69;83.62
62655;BME280;48717;55.556;37.816;2023-12-04T07:06:28;98755.91;;;-7.54;83.54
62655;BME280;48717;55.556;37.816;2023-12-04T07:08:55;98763.31;;;-7.59;82.42
62655;BME280;48717;55.556;37.816;2023-12-04T07:11:22;98759.47;;;-7.67;82.20
62655;BME280;48717;55.556;37.816;2023-12-04T07:13:49;98759.47;;;-7.67;82.03
62655;BME280;48717;55.556;37.816;2023-12-04T07:16:17;98782.75;;;-7.63;82.11
62655;BME280;48717;55.556;37.816;2023-12-04T07:18:44;98782.94;;;-7.60;82.87
62655;BME280;48717;55.556;37.816;2023-12-04T07:21:11;98763.03;;;-7.80;82.84
62655;BME280;48717;55.556;37.816;2023-12-04T07:23:39;98779.25;;;-7.65;82.74
62655;BME280;48717;55.556;37.816;2023-12-04T07:26:06;98796.53;;;-7.61;81.93
62655;BME280;48717;55.556;37.816;2023-12-04T07:28:34;98783.09;;;-7.56;82.05
62655;BME280;48717;55.556;37.816;2023-12-04T07:31:01;98751.13;;;-7.80;82.39
62655;BME280;48717;55.556;37.816;2023-12-04T07:33:29;98791.66;;;-7.56;82.22
62655;BME280;48717;55.556;37.816;2023-12-04T07:35:56;98808.00;;;-7.54;82.18
62655;BME280;48717;55.556;37.816;2023-12-04T07:38:24;98774.66;;;-7.70;82.29
62655;BME280;48717;55.556;37.816;2023-12-04T07:40:55;98819.47;;;-7.47;81.18
62655;BME280;48717;55.556;37.816;2023-12-04T07:43:22;98810.44;;;-7.40;81.45
62655;BME280;48717;55.556;37.816;2023-12-04T07:45:49;98798.78;;;-7.50;80.65
62655;BME280;48717;55.556;37.816;2023-12-04T07:48:17;98816.59;;;-7.37;81.69
62655;BME280;48717;55.556;37.816;2023-12-04T07:50:44;98819.97;;;-7.38;81.51
62655;BME280;48717;55.556;37.816;2023-12-04T07:53:11;98819.47;;;-7.47;81.37
62655;BME280;48717;55.556;37.816;2023-12-04T07:55:40;98843.72;;;-7.40;81.06
62655;BME280;48717;55.556;37.816;2023-12-04T07:58:07;98840.59;;;-7.35;81.08
62655;BME280;48717;55.556;37.816;2023-12-04T08:00:34;98829.34;;;-7.53;80.64
62655;BME280;48717;55.556;37.816;2023-12-04T08:03:02;98860.03;;;-7.38;80.98
62655;BME280;48717;55.556;37.816;2023-12-04T08:05:29;98818.16;;;-7.55;81.45
62655;BME280;48717;55.556;37.816;2023-12-04T08:07:58;98822.47;;;-7.54;81.51
62655;BME280;48717;55.556;37.816;2023-12-04T08:10:29;98848.28;;;-7.35;80.99
62655;BME280;48717;55.556;37.816;2023-12-04T08:12:56;98863.91;;;-7.30;80.88
62655;BME280;48717;55.556;37.816;2023-12-04T08:15:24;98816.44;;;-7.55;80.11
62655;BME280;48717;55.556;37.816;2023-12-04T08:17:51;98837.28;;;-7.49;80.41
62655;BME280;48717;55.556;37.816;2023-12-04T08:20:18;98857.25;;;-7.43;80.84
62655;BME280;48717;55.556;37.816;2023-12-04T08:23:01;98846.66;;;-7.49;80.54
62655;BME280;48717;55.556;37.816;2023-12-04T08:25:30;98858.47;;;-7.36;81.54
62655;BME280;48717;55.556;37.816;2023-12-04T08:27:58;98861.88;;;-7.36;81.38
62655;BME280;48717;55.556;37.816;2023-12-04T08:30:27;98871.50;;;-7.31;81.02
62655;BME280;48717;55.556;37.816;2023-12-04T08:32:54;98877.16;;;-7.37;80.34
62655;BME280;48717;55.556;37.816;2023-12-04T08:35:21;98854.97;;;-7.53;80.05
62655;BME280;48717;55.556;37.816;2023-12-04T08:37:49;98843.91;;;-7.52;79.51
62655;BME280;48717;55.556;37.816;2023-12-04T08:40:16;98879.19;;;-7.31;79.47
62655;BME280;48717;55.556;37.816;2023-12-04T08:42:44;98875.38;;;-7.23;79.61
62655;BME280;48717;55.556;37.816;2023-12-04T08:45:12;98881.53;;;-7.19;79.24
62655;BME280;48717;55.556;37.816;2023-12-04T08:47:40;98888.44;;;-7.18;77.92
62655;BME280;48717;55.556;37.816;2023-12-04T08:50:07;98839.63;;;-7.37;78.25
62655;BME280;48717;55.556;37.816;2023-12-04T08:52:34;98854.38;;;-7.32;76.70
62655;BME280;48717;55.556;37.816;2023-12-04T08:55:02;98880.69;;;-7.20;77.22
62655;BME280;48717;55.556;37.816;2023-12-04T08:57:30;98877.63;;;-7.13;77.72
62655;BME280;48717;55.556;37.816;2023-12-04T08:59:57;98864.31;;;-7.22;77.41
62655;BME280;48717;55.556;37.816;2023-12-04T09:02:25;98893.34;;;-7.06;77.58
62655;BME280;48717;55.556;37.816;2023-12-04T09:04:55;98891.38;;;-6.96;78.18
62655;BME280;48717;55.556;37.816;2023-12-04T09:07:22;98894.16;;;-6.91;78.23
62655;BME280;48717;55.556;37.816;2023-12-04T09:09:52;98889.75;;;-6.93;77.71
62655;BME280;48717;55.556;37.816;2023-12-04T09:12:19;98871.09;;;-6.91;77.47
62655;BME280;48717;55.556;37.816;2023-12-04T09:14:47;98901.00;;;-6.75;77.25
62655;BME280;48717;55.556;37.816;2023-12-04T09:17:15;98897.31;;;-6.80;76.98
62655;BME280;48717;55.556;37.816;2023-12-04T09:19:43;98879.09;;;-7.01;76.82
62655;BME280;48717;55.556;37.816;2023-12-04T09:22:11;98900.19;;;-6.90;76.88
62655;BME280;48717;55.556;37.816;2023-12-04T09:24:45;98903.56;;;-6.91;77.07
62655;BME280;48717;55.556;37.816;2023-12-04T09:27:12;98897.00;;;-6.86;77.08
62655;BME280;48717;55.556;37.816;2023-12-04T09:29:43;98914.38;;;-6.80;76.13
62655;BME280;48717;55.556;37.816;2023-12-04T09:32:10;98918.34;;;-6.86;75.92
62655;BME280;48717;55.556;37.816;2023-12-04T09:34:37;98924.78;;;-6.94;75.18
62655;BME280;48717;55.556;37.816;2023-12-04T09:37:04;98919.66;;;-6.94;74.83
62655;BME280;48717;55.556;37.816;2023-12-04T09:39:37;98923.88;;;-6.95;74.88
62655;BME280;48717;55.556;37.816;2023-12-04T09:42:06;98929.25;;;-6.90;75.36
62655;BME280;48717;55.556;37.816;2023-12-04T09:44:34;98936.63;;;-6.96;74.82
62655;BME280;48717;55.556;37.816;2023-12-04T09:47:03;98938.72;;;-6.89;75.37
62655;BME280;48717;55.556;37.816;2023-12-04T09:49:32;98931.34;;;-6.83;75.00
62655;BME280;48717;55.556;37.816;2023-12-04T09:52:01;98940.63;;;-7.01;74.91
62655;BME280;48717;55.556;37.816;2023-12-04T09:54:29;98937.38;;;-7.14;75.03
62655;BME280;48717;55.556;37.816;2023-12-04T09:56:57;98949.25;;;-6.99;75.07
62655;BME280;48717;55.556;37.816;2023-12-04T09:59:25;98938.34;;;-7.12;74.18
62655;BME280;48717;55.556;37.816;2023-12-04T10:01:57;98955.53;;;-6.94;74.49
62655;BME280;48717;55.556;37.816;2023-12-04T10:04:25;98965.13;;;-6.90;74.19
62655;BME280;48717;55.556;37.816;2023-12-04T10:06:52;98958.25;;;-6.91;73.52
62655;BME280;48717;55.556;37.816;2023-12-04T10:09:20;98965.19;;;-7.05;73.86
62655;BME280;48717;55.556;37.816;2023-12-04T10:11:53;98988.38;;;-6.87;74.06
62655;BME280;48717;55.556;37.816;2023-12-04T10:14:22;98970.75;;;-6.97;73.84
62655;BME280;48717;55.556;37.816;2023-12-04T10:16:50;98984.09;;;-7.03;74.28
62655;BME280;48717;55.556;37.816;2023-12-04T10:19:20;98990.44;;;-6.96;73.98
62655;BME280;48717;55.556;37.816;2023-12-04T10:21:50;98996.00;;;-7.03;74.10
62655;BME280;48717;55.556;37.816;2023-12-04T10:24:35;98980.75;;;-7.17;74.45
62655;BME280;48717;55.556;37.816;2023-12-04T10:27:08;99010.53;;;-7.19;74.52
62655;BME280;48717;55.556;37.816;2023-12-04T10:29:49;99025.91;;;-7.19;75.92
62655;BME280;48717;55.556;37.816;2023-12-04T10:32:19;98999.59;;;-7.31;75.92
62655;BME280;48717;55.556;37.816;2023-12-04T10:34:49;99023.16;;;-7.22;75.48
62655;BME280;48717;55.556;37.816;2023-12-04T10:37:16;99002.34;;;-7.28;75.49
62655;BME280;48717;55.556;37.816;2023-12-04T10:42:28;99023.97;;;-7.38;76.72
62655;BME280;48717;55.556;37.816;2023-12-04T10:44:57;99015.06;;;-7.45;76.44
62655;BME280;48717;55.556;37.816;2023-12-04T10:47:26;99013.53;;;-7.41;76.86
62655;BME280;48717;55.556;37.816;2023-12-04T10:49:53;99029.72;;;-7.27;77.48
62655;BME280;48717;55.556;37.816;2023-12-04T10:52:22;99040.56;;;-7.31;77.13
62655;BME280;48717;55.556;37.816;2023-12-04T10:54:50;98996.59;;;-7.54;77.72
62655;BME280;48717;55.556;37.816;2023-12-04T10:57:29;99016.56;;;-7.49;77.81
62655;BME280;48717;55.556;37.816;2023-12-04T11:00:03;99037.66;;;-7.38;77.88
62655;BME280;48717;55.556;37.816;2023-12-04T11:02:41;99020.59;;;-7.52;78.10
62655;BME280;48717;55.556;37.816;2023-12-04T11:05:16;99029.81;;;-7.41;77.81
62655;BME280;48717;55.556;37.816;2023-12-04T11:07:57;99043.03;;;-7.33;77.44
62655;BME280;48717;55.556;37.816;2023-12-04T11:13:40;99041.28;;;-7.19;77.98
62655;BME280;48717;55.556;37.816;2023-12-04T11:16:17;99060.38;;;-7.14;78.78
62655;BME280;48717;55.556;37.816;2023-12-04T11:18:56;99050.53;;;-7.06;78.58
62655;BME280;48717;55.556;37.816;2023-12-04T11:21:32;99009.13;;;-7.29;77.96
62655;BME280;48717;55.556;37.816;2023-12-04T11:24:00;99047.63;;;-7.12;78.56
62655;BME280;48717;55.556;37.816;2023-12-04T11:26:29;99063.44;;;-7.04;78.75
62655;BME280;48717;55.556;37.816;2023-12-04T11:28:57;99050.72;;;-7.18;78.35
62655;BME280;48717;55.556;37.816;2023-12-04T11:31:25;99057.69;;;-7.00;78.57
62655;BME280;48717;55.556;37.816;2023-12-04T11:33:52;99066.53;;;-6.95;78.91
62655;BME280;48717;55.556;37.816;2023-12-04T11:36:20;99058.78;;;-7.12;78.65
62655;BME280;48717;55.556;37.816;2023-12-04T11:38:48;99057.19;;;-7.10;79.13
62655;BME280;48717;55.556;37.816;2023-12-04T11:41:21;99080.69;;;-7.02;79.65
62655;BME280;48717;55.556;37.816;2023-12-04T11:43:56;99060.03;;;-7.05;80.18
62655;BME280;48717;55.556;37.816;2023-12-04T11:46:26;99065.22;;;-7.03;79.80
62655;BME280;48717;55.556;37.816;2023-12-04T11:48:55;99070.44;;;-7.02;79.07
62655;BME280;48717;55.556;37.816;2023-12-04T11:54:10;99075.03;;;-6.96;80.08
62655;BME280;48717;55.556;37.816;2023-12-04T11:56:37;99078.03;;;-7.03;79.96
62655;BME280;48717;55.556;37.816;2023-12-04T11:59:06;99095.19;;;-7.02;80.69
62655;BME280;48717;55.556;37.816;2023-12-04T12:01:36;99093.25;;;-7.06;80.14
62655;BME280;48717;55.556;37.816;2023-12-04T12:04:07;99080.16;;;-7.26;80.67
62655;BME280;48717;55.556;37.816;2023-12-04T12:06:34;99102.25;;;-7.13;80.83
62655;BME280;48717;55.556;37.816;2023-12-04T12:09:04;99100.13;;;-7.05;80.69
62655;BME280;48717;55.556;37.816;2023-12-04T12:11:31;99112.66;;;-7.10;80.17
62655;BME280;48717;55.556;37.816;2023-12-04T12:13:59;99106.41;;;-7.15;79.58
62655;BME280;48717;55.556;37.816;2023-12-04T12:16:27;99113.38;;;-7.13;80.34
62655;BME280;48717;55.556;37.816;2023-12-04T12:18:55;99115.16;;;-7.12;79.47
62655;BME280;48717;55.556;37.816;2023-12-04T12:21:22;99110.56;;;-7.17;79.41
62655;BME280;48717;55.556;37.816;2023-12-04T12:23:49;99093.56;;;-7.30;79.35
62655;BME280;48717;55.556;37.816;2023-12-04T12:26:16;99120.63;;;-7.21;79.16
62655;BME280;48717;55.556;37.816;2023-12-04T12:28:45;99110.38;;;-7.21;79.96
62655;BME280;48717;55.556;37.816;2023-12-04T12:31:12;99097.84;;;-7.31;79.93
62655;BME280;48717;55.556;37.816;2023-12-04T12:33:39;99117.22;;;-7.35;80.02
62655;BME280;48717;55.556;37.816;2023-12-04T12:36:07;99131.03;;;-7.32;81.08
62655;BME280;48717;55.556;37.816;2023-12-04T12:38:36;99098.00;;;-7.43;80.85
62655;BME280;48717;55.556;37.816;2023-12-04T12:41:08;99128.06;;;-7.25;80.91
62655;BME280;48717;55.556;37.816;2023-12-04T12:43:38;99121.94;;;-7.27;80.80
62655;BME280;48717;55.556;37.816;2023-12-04T12:46:05;99123.97;;;-7.37;80.81
62655;BME280;48717;55.556;37.816;2023-12-04T12:48:33;99126.59;;;-7.50;81.05
62655;BME280;48717;55.556;37.816;2023-12-04T12:51:02;99127.75;;;-7.45;81.50
62655;BME280;48717;55.556;37.816;2023-12-04T12:53:33;99112.78;;;-7.67;81.65
62655;BME280;48717;55.556;37.816;2023-12-04T12:56:01;99149.22;;;-7.43;82.22
62655;BME280;48717;55.556;37.816;2023-12-04T12:58:28;99140.53;;;-7.45;82.46
62655;BME280;48717;55.556;37.816;2023-12-04T13:00:55;99144.97;;;-7.42;82.72
62655;BME280;48717;55.556;37.816;2023-12-04T13:03:23;99135.44;;;-7.45;82.86
62655;BME280;48717;55.556;37.816;2023-12-04T13:05:51;99154.16;;;-7.46;81.86